createdAt,value
2018-07-19T00:02:06.153Z,6.30
2018-07-19T00:04:35.147Z,6.00
2018-07-19T00:07:04.214Z,6.53
2018-07-19T00:09:33.318Z,6.60
2018-07-19T00:12:02.353Z,5.83
2018-07-19T00:14:31.933Z,6.30
2018-07-19T00:17:01.117Z,5.60
2018-07-19T00:19:30.493Z,5.87
2018-07-19T00:21:59.644Z,6.23
2018-07-19T00:24:29.061Z,5.90
2018-07-19T00:26:58.632Z,5.43
2018-07-19T00:29:27.710Z,5.90
2018-07-19T00:31:57.247Z,5.40
2018-07-19T00:34:26.599Z,6.57
2018-07-19T00:36:55.970Z,5.97
2018-07-19T00:39:25.398Z,6.03
2018-07-19T00:41:54.808Z,5.70
2018-07-19T00:44:24.229Z,5.67
2018-07-19T00:46:53.582Z,6.10
2018-07-19T00:49:23.083Z,5.57
2018-07-19T00:51:52.463Z,6.50
2018-07-19T00:54:21.892Z,6.17
2018-07-19T00:56:51.337Z,5.33
2018-07-19T00:59:20.947Z,6.00
2018-07-19T01:01:50.299Z,6.00
2018-07-19T01:04:19.738Z,5.43
2018-07-19T01:06:49.206Z,6.90
2018-07-19T01:09:18.542Z,5.40
2018-07-19T01:11:47.922Z,5.40
2018-07-19T01:14:17.200Z,5.93
2018-07-19T01:16:46.658Z,5.67
2018-07-19T01:19:16.675Z,6.70
2018-07-19T01:21:46.070Z,6.13
2018-07-19T01:24:15.477Z,5.97
2018-07-19T01:26:44.840Z,5.13
2018-07-19T01:29:15.102Z,6.77
2018-07-19T01:31:44.497Z,6.13
2018-07-19T01:34:13.848Z,5.70
2018-07-19T01:36:44.657Z,6.27
2018-07-19T01:39:14.065Z,5.23
2018-07-19T01:42:22.986Z,5.63
2018-07-19T01:44:52.591Z,7.27
2018-07-19T01:47:22.222Z,6.20
2018-07-19T01:49:52.441Z,6.23
2018-07-19T01:52:21.750Z,7.17
2018-07-19T01:54:51.123Z,6.33
2018-07-19T01:57:21.002Z,5.70
2018-07-19T01:59:50.731Z,6.37
2018-07-19T02:02:20.478Z,6.70
2018-07-19T02:04:49.839Z,6.50
2018-07-19T02:07:19.119Z,6.43
2018-07-19T02:09:48.598Z,7.23
2018-07-19T02:12:18.573Z,6.60
2018-07-19T02:14:47.531Z,5.40
2018-07-19T02:17:16.834Z,7.03
2018-07-19T02:19:45.919Z,6.53
2018-07-19T02:22:15.089Z,6.80
2018-07-19T02:24:44.089Z,6.10
2018-07-19T02:27:13.135Z,6.50
2018-07-19T02:29:42.146Z,6.20
2018-07-19T02:32:11.156Z,6.20
2018-07-19T02:34:40.197Z,6.20
2018-07-19T02:37:09.304Z,6.70
2018-07-19T02:39:38.267Z,6.30
2018-07-19T02:42:07.339Z,5.60
2018-07-19T02:44:36.406Z,6.03
2018-07-19T02:47:05.430Z,5.87
2018-07-19T02:49:34.469Z,5.13
2018-07-19T02:52:03.513Z,6.90
2018-07-19T02:54:32.649Z,6.50
2018-07-19T02:57:01.681Z,6.10
2018-07-19T02:59:30.651Z,5.47
2018-07-19T03:02:00.790Z,6.30
2018-07-19T03:04:29.847Z,5.30
2018-07-19T03:06:58.856Z,6.50
2018-07-19T03:09:27.825Z,5.70
2018-07-19T03:11:56.878Z,6.73
2018-07-19T03:14:25.998Z,6.20
2018-07-19T03:16:55.064Z,7.17
2018-07-19T03:19:24.160Z,6.47
2018-07-19T03:21:53.177Z,6.70
2018-07-19T03:24:22.205Z,6.30
2018-07-19T03:26:51.173Z,5.70
2018-07-19T03:29:20.275Z,5.57
2018-07-19T03:31:49.526Z,6.20
2018-07-19T03:34:18.577Z,7.20
2018-07-19T03:36:47.653Z,6.07
2018-07-19T03:39:16.794Z,5.70
2018-07-19T03:41:45.852Z,5.57
2018-07-19T03:44:14.914Z,6.53
2018-07-19T03:46:44.014Z,7.10
2018-07-19T03:49:13.092Z,6.63
2018-07-19T03:51:42.229Z,6.90
2018-07-19T03:54:11.323Z,6.93
2018-07-19T03:56:40.463Z,6.53
2018-07-19T03:59:09.718Z,5.60
2018-07-19T04:01:38.751Z,6.10
2018-07-19T04:04:07.791Z,6.50
2018-07-19T04:06:37.679Z,5.90
2018-07-19T04:09:08.437Z,6.00
2018-07-19T04:11:37.611Z,6.77
2018-07-19T04:14:06.933Z,7.40
2018-07-19T04:16:36.268Z,7.43
2018-07-19T04:19:05.334Z,7.00
2018-07-19T04:21:34.646Z,7.40
2018-07-19T04:24:03.772Z,5.93
2018-07-19T04:26:32.853Z,6.73
2018-07-19T04:29:01.971Z,6.73
2018-07-19T04:31:31.169Z,8.33
2018-07-19T04:34:00.164Z,7.10
2018-07-19T04:36:29.310Z,5.90
2018-07-19T04:38:58.313Z,6.50
2018-07-19T04:41:27.399Z,7.00
2018-07-19T04:43:56.532Z,7.33
2018-07-19T04:46:25.670Z,6.80
2018-07-19T04:48:55.186Z,6.87
2018-07-19T04:51:24.220Z,5.63
2018-07-19T04:53:53.600Z,6.70
2018-07-19T04:56:22.944Z,6.20
2018-07-19T04:58:52.079Z,13.10
2018-07-19T05:01:21.098Z,9.73
2018-07-19T05:03:50.261Z,9.50
2018-07-19T05:06:19.892Z,11.43
2018-07-19T05:08:49.031Z,11.10
2018-07-19T05:11:18.108Z,9.80
2018-07-19T05:13:47.301Z,9.30
2018-07-19T05:16:16.400Z,11.10
2018-07-19T05:18:45.463Z,10.03
2018-07-19T05:21:15.597Z,8.30
2018-07-19T05:23:44.898Z,10.60
2018-07-19T05:26:13.949Z,6.73
2018-07-19T05:28:43.071Z,7.67
2018-07-19T05:31:12.127Z,7.43
2018-07-19T05:33:41.235Z,7.10
2018-07-19T05:36:10.952Z,8.70
2018-07-19T05:38:40.165Z,8.27
2018-07-19T05:41:09.663Z,7.60
2018-07-19T05:43:38.706Z,7.90
2018-07-19T05:46:07.967Z,7.50
2018-07-19T05:48:37.159Z,7.90
2018-07-19T05:51:07.005Z,7.67
2018-07-19T05:53:36.056Z,6.97
2018-07-19T05:56:05.432Z,7.90
2018-07-19T05:58:35.130Z,7.23
2018-07-19T06:01:05.252Z,7.00
2018-07-19T06:03:34.333Z,6.53
2018-07-19T06:06:03.448Z,6.90
2018-07-19T06:08:32.552Z,6.20
2018-07-19T06:11:01.943Z,6.00
2018-07-19T06:13:31.148Z,6.03
2018-07-19T06:16:01.046Z,7.17
2018-07-19T06:18:30.404Z,5.90
2018-07-19T06:20:59.527Z,7.53
2018-07-19T06:23:28.986Z,6.90
2018-07-19T06:25:58.148Z,7.00
2018-07-19T06:28:27.978Z,6.43
2018-07-19T06:30:57.157Z,7.40
2018-07-19T06:33:26.283Z,6.63
2018-07-19T06:35:55.394Z,7.07
2018-07-19T06:38:24.550Z,7.13
2018-07-19T06:40:53.715Z,6.50
2018-07-19T06:43:23.395Z,6.10
2018-07-19T06:45:52.495Z,7.27
2018-07-19T06:48:21.636Z,5.90
2018-07-19T06:50:50.833Z,6.33
2018-07-19T06:53:19.937Z,6.37
2018-07-19T06:55:49.073Z,6.77
2018-07-19T06:58:18.190Z,6.23
2018-07-19T07:00:47.303Z,6.40
2018-07-19T07:03:17.286Z,7.07
2018-07-19T07:05:46.965Z,6.67
2018-07-19T07:08:16.207Z,6.90
2018-07-19T07:10:45.548Z,6.17
2018-07-19T07:13:14.716Z,6.77
2018-07-19T07:15:44.076Z,6.50
2018-07-19T07:18:19.553Z,6.67
2018-07-19T07:20:49.646Z,6.67
2018-07-19T07:23:18.822Z,5.87
2018-07-19T07:25:54.652Z,6.23
2018-07-19T07:28:25.023Z,6.83
2018-07-19T07:30:54.121Z,6.80
2018-07-19T07:33:23.221Z,5.43
2018-07-19T07:35:52.646Z,5.90
2018-07-19T07:38:21.837Z,5.97
2018-07-19T07:40:50.980Z,6.57
2018-07-19T07:43:20.174Z,6.43
2018-07-19T07:45:50.486Z,5.97
2018-07-19T07:48:20.893Z,6.40
2018-07-19T07:50:51.953Z,6.30
2018-07-19T07:53:21.512Z,6.10
2018-07-19T07:55:50.931Z,6.27
2018-07-19T07:58:20.295Z,5.93
2018-07-19T08:00:49.657Z,5.13
2018-07-19T08:03:19.438Z,5.70
2018-07-19T08:05:48.613Z,5.37
2018-07-19T08:08:18.418Z,5.20
2018-07-19T08:10:47.801Z,5.73
2018-07-19T08:13:17.607Z,5.27
2018-07-19T08:15:46.699Z,4.40
2018-07-19T08:18:15.724Z,4.63
2018-07-19T08:20:44.712Z,5.50
2018-07-19T08:23:13.867Z,5.43
2018-07-19T08:25:42.959Z,4.57
2018-07-19T08:28:12.036Z,4.80
2018-07-19T08:30:41.088Z,4.37
2018-07-19T08:33:10.250Z,4.50
2018-07-19T08:35:39.319Z,3.80
2018-07-19T08:38:09.097Z,3.70
2018-07-19T08:40:38.213Z,4.07
2018-07-19T08:43:07.503Z,3.77
2018-07-19T08:45:36.570Z,3.87
2018-07-19T08:48:05.891Z,3.90
2018-07-19T08:50:34.990Z,3.80
2018-07-19T08:53:04.069Z,3.83
2018-07-19T08:55:33.471Z,3.83
2018-07-19T08:58:03.743Z,3.37
2018-07-19T09:00:33.337Z,3.50
2018-07-19T09:03:02.703Z,3.50
2018-07-19T09:05:32.169Z,3.47
2018-07-19T09:08:01.899Z,2.70
2018-07-19T09:10:31.708Z,3.30
2018-07-19T09:13:01.230Z,3.10
2018-07-19T09:15:30.732Z,3.57
2018-07-19T09:18:00.038Z,2.93
2018-07-19T09:20:29.603Z,3.13
2018-07-19T09:22:58.994Z,3.27
2018-07-19T09:25:28.510Z,3.77
2018-07-19T09:27:58.156Z,2.63
2018-07-19T09:30:27.583Z,3.17
2018-07-19T09:32:57.129Z,3.70
2018-07-19T09:35:26.726Z,2.73
2018-07-19T09:37:56.139Z,3.60
2018-07-19T09:40:25.729Z,3.23
2018-07-19T09:42:54.918Z,3.73
2018-07-19T09:45:24.107Z,3.53
2018-07-19T09:47:53.320Z,3.83
2018-07-19T09:50:22.462Z,3.80
2018-07-19T09:52:51.691Z,3.23
2018-07-19T09:55:20.742Z,3.20
2018-07-19T09:57:49.784Z,3.60
2018-07-19T10:00:24.134Z,3.03
2018-07-19T10:02:53.671Z,3.33
2018-07-19T10:05:22.696Z,3.50
2018-07-19T10:07:51.806Z,3.13
2018-07-19T10:10:20.945Z,2.90
2018-07-19T10:12:49.935Z,3.30
2018-07-19T10:15:18.980Z,4.07
2018-07-19T10:17:48.119Z,3.60
2018-07-19T10:20:17.418Z,3.17
2018-07-19T10:22:46.749Z,3.17
2018-07-19T10:25:16.105Z,3.47
2018-07-19T10:27:45.579Z,3.33
2018-07-19T10:30:14.895Z,3.60
2018-07-19T10:32:45.325Z,3.30
2018-07-19T10:35:14.790Z,3.10
2018-07-19T10:37:44.275Z,2.90
2018-07-19T10:40:13.777Z,3.60
2018-07-19T10:42:42.824Z,3.37
2018-07-19T10:45:12.169Z,2.90
2018-07-19T10:47:41.586Z,3.40
2018-07-19T10:50:10.904Z,3.57
2018-07-19T10:52:40.224Z,3.63
2018-07-19T10:55:09.516Z,3.00
2018-07-19T10:57:38.864Z,2.87
2018-07-19T11:00:08.297Z,4.07
2018-07-19T11:02:37.765Z,2.87
2018-07-19T11:05:07.082Z,2.97
2018-07-19T11:07:36.587Z,3.00
2018-07-19T11:10:06.283Z,2.80
2018-07-19T11:12:36.220Z,3.40
2018-07-19T11:15:05.519Z,3.20
2018-07-19T11:17:34.786Z,4.07
2018-07-19T11:20:04.179Z,3.73
2018-07-19T11:22:33.736Z,3.70
2018-07-19T11:25:03.031Z,4.00
2018-07-19T11:27:32.458Z,3.87
2018-07-19T11:30:01.978Z,3.47
2018-07-19T11:32:31.482Z,3.70
2018-07-19T11:35:00.997Z,3.17
2018-07-19T11:37:30.477Z,3.40
2018-07-19T11:39:59.997Z,3.47
2018-07-19T11:42:30.469Z,3.80
2018-07-19T11:44:59.659Z,3.27
2018-07-19T11:47:28.961Z,3.70
2018-07-19T11:49:58.406Z,3.63
2018-07-19T11:52:27.892Z,3.10
2018-07-19T11:54:58.042Z,3.10
2018-07-19T11:57:27.516Z,3.47
2018-07-19T11:59:58.269Z,3.57
2018-07-19T12:02:27.797Z,3.47
2018-07-19T12:04:57.490Z,2.90
2018-07-19T12:07:26.810Z,3.30
2018-07-19T12:09:57.401Z,3.63
2018-07-19T12:12:26.933Z,5.10
2018-07-19T12:14:56.437Z,3.07
2018-07-19T12:17:25.932Z,3.40
2018-07-19T12:19:55.852Z,3.53
2018-07-19T12:22:25.368Z,3.60
2018-07-19T12:24:54.968Z,3.43
2018-07-19T12:27:24.392Z,3.20
2018-07-19T12:29:54.547Z,2.60
2018-07-19T12:32:24.111Z,3.03
2018-07-19T12:34:53.373Z,2.80
2018-07-19T12:37:23.108Z,2.93
2018-07-19T12:39:52.408Z,3.10
2018-07-19T12:42:21.733Z,3.23
2018-07-19T12:44:50.727Z,3.87
2018-07-19T12:47:20.239Z,2.90
2018-07-19T12:49:49.679Z,3.87
2018-07-19T12:52:19.283Z,4.07
2018-07-19T12:54:49.050Z,3.10
2018-07-19T12:57:18.454Z,2.80
2018-07-19T12:59:47.979Z,3.00
2018-07-19T13:02:17.526Z,3.33
2018-07-19T13:04:47.504Z,2.90
2018-07-19T13:07:16.872Z,2.90
2018-07-19T13:09:46.338Z,2.70
2018-07-19T13:12:15.925Z,3.43
2018-07-19T13:14:46.495Z,3.50
2018-07-19T13:17:16.219Z,3.43
2018-07-19T13:19:46.040Z,3.03
2018-07-19T13:22:15.667Z,2.47
2018-07-19T13:24:44.964Z,3.07
2018-07-19T13:27:14.347Z,2.63
2018-07-19T13:29:43.749Z,2.63
2018-07-19T13:32:13.099Z,3.50
2018-07-19T13:34:42.666Z,2.60
2018-07-19T13:37:13.036Z,3.60
2018-07-19T13:39:42.475Z,2.90
2018-07-19T13:42:11.812Z,3.37
2018-07-19T13:44:41.230Z,3.23
2018-07-19T13:47:10.701Z,2.73
2018-07-19T13:49:40.356Z,3.37
2018-07-19T13:52:09.799Z,2.43
2018-07-19T13:54:50.177Z,2.70
2018-07-19T13:57:20.561Z,3.33
2018-07-19T13:59:51.061Z,3.00
2018-07-19T14:02:21.005Z,3.20
2018-07-19T14:04:50.621Z,3.30
2018-07-19T14:07:19.962Z,3.47
2018-07-19T14:09:49.442Z,3.20
2018-07-19T14:12:18.995Z,3.40
2018-07-19T14:14:48.679Z,3.50
2018-07-19T14:17:18.164Z,2.83
2018-07-19T14:19:47.466Z,3.27
2018-07-19T14:22:16.937Z,3.00
2018-07-19T14:24:46.219Z,2.97
2018-07-19T14:27:15.711Z,2.90
2018-07-19T14:29:45.128Z,2.70
2018-07-19T14:32:16.342Z,3.13
2018-07-19T14:34:45.850Z,3.00
2018-07-19T14:37:15.303Z,3.53
2018-07-19T14:39:44.692Z,5.40
2018-07-19T14:42:14.159Z,3.67
2018-07-19T14:44:43.611Z,4.07
2018-07-19T14:47:12.843Z,4.30
2018-07-19T14:49:42.212Z,3.10
2018-07-19T14:52:11.474Z,4.13
2018-07-19T14:54:40.893Z,3.40
2018-07-19T14:57:10.546Z,3.20
2018-07-19T14:59:39.953Z,3.40
2018-07-19T15:02:09.284Z,3.60
2018-07-19T15:04:38.733Z,4.23
2018-07-19T15:07:09.322Z,3.97
2018-07-19T15:09:39.653Z,3.60
2018-07-19T15:12:09.250Z,3.80
2018-07-19T15:14:39.052Z,3.10
2018-07-19T15:17:08.345Z,2.93
2018-07-19T15:19:37.823Z,3.40
2018-07-19T15:22:07.921Z,2.80
2018-07-19T15:24:37.345Z,3.17
2018-07-19T15:27:06.747Z,3.10
2018-07-19T15:29:36.056Z,3.63
2018-07-19T15:32:05.560Z,2.83
2018-07-19T15:34:35.469Z,2.87
2018-07-19T15:37:04.871Z,4.97
2018-07-19T15:39:34.213Z,3.30
2018-07-19T15:42:03.544Z,3.40
2018-07-19T15:44:33.227Z,3.37
2018-07-19T15:47:02.818Z,3.83
2018-07-19T15:49:35.667Z,3.50
2018-07-19T15:52:05.450Z,3.57
2018-07-19T15:54:35.574Z,2.50
2018-07-19T15:57:05.152Z,3.27
2018-07-19T15:59:34.637Z,3.63
2018-07-19T16:02:03.973Z,3.37
2018-07-19T16:04:33.275Z,3.43
2018-07-19T16:07:02.342Z,3.20
2018-07-19T16:09:31.885Z,3.73
2018-07-19T16:12:01.252Z,3.40
2018-07-19T16:14:30.865Z,3.43
2018-07-19T16:17:00.356Z,3.63
2018-07-19T16:19:30.030Z,3.87
2018-07-19T16:21:59.401Z,3.80
2018-07-19T16:24:28.846Z,3.80
2018-07-19T16:26:58.565Z,3.60
2018-07-19T16:29:28.152Z,4.63
2018-07-19T16:31:57.708Z,3.03
2018-07-19T16:34:27.203Z,3.47
2018-07-19T16:36:56.575Z,4.27
2018-07-19T16:39:27.084Z,3.90
2018-07-19T16:41:57.508Z,3.47
2018-07-19T16:44:26.770Z,4.00
2018-07-19T16:46:58.173Z,3.53
2018-07-19T16:49:27.535Z,3.90
2018-07-19T16:51:56.974Z,3.20
2018-07-19T16:54:26.365Z,3.40
2018-07-19T16:56:56.215Z,4.70
2018-07-19T16:59:25.601Z,3.67
2018-07-19T17:01:54.853Z,4.07
2018-07-19T17:04:24.271Z,3.37
2018-07-19T17:06:54.526Z,3.70
2018-07-19T17:09:24.874Z,3.90
2018-07-19T17:11:55.908Z,3.73
2018-07-19T17:14:25.271Z,3.83
2018-07-19T17:16:55.950Z,3.63
2018-07-19T17:19:25.288Z,4.20
2018-07-19T17:21:54.709Z,3.60
2018-07-19T17:24:24.791Z,3.70
2018-07-19T17:26:54.032Z,3.97
2018-07-19T17:29:24.088Z,3.50
2018-07-19T17:31:53.458Z,3.90
2018-07-19T17:34:22.876Z,3.90
2018-07-19T17:36:52.243Z,3.77
2018-07-19T17:39:22.276Z,3.27
2018-07-19T17:41:52.858Z,3.60
2018-07-19T17:44:23.344Z,3.67
2018-07-19T17:46:53.638Z,4.03
2018-07-19T17:49:23.167Z,3.40
2018-07-19T17:51:52.625Z,4.00
2018-07-19T17:54:21.950Z,3.53
2018-07-19T17:56:51.384Z,3.60
2018-07-19T17:59:21.406Z,3.40
2018-07-19T18:01:51.430Z,3.87
2018-07-19T18:04:22.129Z,3.97
2018-07-19T18:06:51.735Z,3.60
2018-07-19T18:09:21.313Z,3.90
2018-07-19T18:11:51.078Z,4.20
2018-07-19T18:14:20.637Z,3.20
2018-07-19T18:16:50.193Z,3.80
2018-07-19T18:19:19.707Z,3.90
2018-07-19T18:21:49.168Z,4.03
2018-07-19T18:24:19.508Z,4.10
2018-07-19T18:26:48.971Z,3.47
2018-07-19T18:29:18.334Z,4.10
2018-07-19T18:31:48.597Z,3.93
2018-07-19T18:34:18.131Z,3.90
2018-07-19T18:36:47.463Z,3.67
2018-07-19T18:39:16.839Z,4.13
2018-07-19T18:41:46.482Z,3.90
2018-07-19T18:44:15.798Z,3.40
2018-07-19T18:46:45.645Z,4.00
2018-07-19T18:49:14.999Z,3.83
2018-07-19T18:51:44.353Z,3.90
2018-07-19T18:54:13.982Z,3.97
2018-07-19T18:56:43.417Z,4.17
2018-07-19T18:59:12.873Z,4.23
2018-07-19T19:01:43.171Z,3.87
2018-07-19T19:04:12.553Z,4.33
2018-07-19T19:06:42.006Z,3.60
2018-07-19T19:09:12.644Z,3.37
2018-07-19T19:11:42.576Z,3.93
2018-07-19T19:14:12.178Z,4.07
2018-07-19T19:16:41.865Z,4.77
2018-07-19T19:19:11.459Z,3.80
2018-07-19T19:21:42.222Z,4.70
2018-07-19T19:24:12.112Z,4.20
2018-07-19T19:26:42.601Z,4.00
2018-07-19T19:29:12.379Z,4.13
2018-07-19T19:31:41.895Z,4.10
2018-07-19T19:34:11.996Z,4.90
2018-07-19T19:36:41.920Z,5.03
2018-07-19T19:39:13.414Z,3.80
2018-07-19T19:41:44.236Z,5.00
2018-07-19T19:44:14.059Z,4.20
2018-07-19T19:46:43.695Z,4.80
2018-07-19T19:49:14.277Z,4.57
2018-07-19T19:51:43.840Z,3.93
2018-07-19T19:54:13.204Z,4.63
2018-07-19T19:56:42.483Z,4.27
2018-07-19T19:59:12.056Z,3.93
2018-07-19T20:01:41.585Z,4.00
2018-07-19T20:04:11.603Z,4.20
2018-07-19T20:06:40.839Z,4.00
2018-07-19T20:09:11.535Z,4.70
2018-07-19T20:11:40.983Z,4.80
2018-07-19T20:14:10.663Z,5.10
2018-07-19T20:16:39.966Z,4.43
2018-07-19T20:19:09.414Z,3.40
2018-07-19T20:21:40.167Z,4.20
2018-07-19T20:24:09.744Z,6.10
2018-07-19T20:26:39.362Z,4.73
2018-07-19T20:29:09.969Z,4.50
2018-07-19T20:31:39.690Z,4.60
2018-07-19T20:34:09.105Z,4.33
2018-07-19T20:36:39.694Z,5.23
2018-07-19T20:39:09.118Z,4.63
2018-07-19T20:41:38.548Z,4.10
2018-07-19T20:44:08.060Z,4.03
2018-07-19T20:46:37.612Z,4.07
2018-07-19T20:49:07.072Z,4.70
2018-07-19T20:51:36.573Z,4.90
2018-07-19T20:54:06.592Z,4.53
2018-07-19T20:56:36.261Z,4.47
2018-07-19T20:59:05.601Z,4.90
2018-07-19T21:01:35.194Z,4.57
2018-07-19T21:04:05.315Z,4.30
2018-07-19T21:06:34.719Z,4.30
2018-07-19T21:09:04.517Z,4.60
2018-07-19T21:11:34.204Z,4.83
2018-07-19T21:14:03.595Z,4.77
2018-07-19T21:16:33.393Z,4.90
2018-07-19T21:19:02.883Z,4.30
2018-07-19T21:21:32.837Z,3.87
2018-07-19T21:24:02.561Z,5.40
2018-07-19T21:26:31.987Z,4.20
2018-07-19T21:29:01.457Z,3.97
2018-07-19T21:31:31.396Z,5.37
2018-07-19T21:34:00.755Z,4.40
2018-07-19T21:36:30.134Z,5.30
2018-07-19T21:38:59.411Z,5.00
2018-07-19T21:41:28.813Z,4.33
2018-07-19T21:43:58.063Z,5.40
2018-07-19T21:46:27.467Z,4.30
2018-07-19T21:48:56.942Z,4.57
2018-07-19T21:51:26.200Z,4.47
2018-07-19T21:53:55.574Z,4.30
2018-07-19T21:56:25.070Z,5.10
2018-07-19T21:58:54.414Z,5.20
2018-07-19T22:01:23.605Z,5.43
2018-07-19T22:03:52.916Z,5.10
2018-07-19T22:06:22.226Z,6.03
2018-07-19T22:08:51.475Z,5.57
2018-07-19T22:11:21.917Z,5.50
2018-07-19T22:13:51.399Z,5.03
2018-07-19T22:16:20.890Z,5.63
2018-07-19T22:18:50.415Z,5.70
2018-07-19T22:21:19.638Z,5.63
2018-07-19T22:23:49.135Z,5.53
2018-07-19T22:26:18.537Z,6.20
2018-07-19T22:28:48.063Z,4.77
2018-07-19T22:31:17.570Z,5.23
2018-07-19T22:33:47.758Z,6.43
2018-07-19T22:36:18.364Z,5.13
2018-07-19T22:38:47.926Z,5.20
2018-07-19T22:41:17.564Z,4.70
2018-07-19T22:43:46.850Z,6.33
2018-07-19T22:46:16.186Z,5.23
2018-07-19T22:48:45.397Z,5.97
2018-07-19T22:51:14.788Z,5.13
2018-07-19T22:53:44.146Z,4.83
2018-07-19T22:56:13.600Z,5.30
2018-07-19T22:58:42.905Z,6.90
2018-07-19T23:01:12.191Z,5.23
2018-07-19T23:03:41.568Z,5.83
2018-07-19T23:06:10.994Z,4.90
2018-07-19T23:08:40.359Z,5.27
2018-07-19T23:11:09.785Z,5.33
2018-07-19T23:13:39.172Z,5.40
2018-07-19T23:16:08.978Z,5.40
2018-07-19T23:18:38.290Z,5.10
2018-07-19T23:21:07.620Z,6.23
2018-07-19T23:23:36.903Z,5.57
2018-07-19T23:26:06.393Z,5.03
2018-07-19T23:28:35.853Z,5.87
2018-07-19T23:31:05.820Z,4.70
2018-07-19T23:33:35.331Z,6.10
2018-07-19T23:36:07.896Z,5.10
2018-07-19T23:38:45.740Z,5.73
2018-07-19T23:41:19.681Z,6.50
2018-07-19T23:43:52.774Z,5.67
2018-07-19T23:46:25.732Z,6.23
2018-07-19T23:48:56.464Z,6.00
2018-07-19T23:51:25.748Z,5.20
2018-07-19T23:53:55.036Z,5.83
2018-07-19T23:56:25.330Z,5.43
2018-07-19T23:58:55.046Z,5.33
